This is the latest recevied weather packets stored in our database for station/object GW1561. If no packets are shown the sender has not sent any weather packets the latest 10 day(s).
| Time | Temp. | Humidity | Pressure | Rain* | Wind** | Luminosity | Snow |
|---|---|---|---|---|---|---|---|
| 1778196971 | 13.33° C | 70% | - | 0 mm | - | - | - |
| 1778196613 | 13.33° C | 65% | - | 0 mm | - | - | - |
| 1778195914 | 14.44° C | 61% | - | 0 mm | - | - | - |
| 1778188330 | 17.78° C | 48% | - | 0 mm | - | - | - |
| 1778187991 | 17.22° C | 43% | - | 0 mm | - | - | - |
| 1778186210 | 17.78° C | 46% | - | 0 mm | - | - | - |
| 1778185850 | 17.78° C | 54% | - | 0 mm | - | - | - |
| 1778185487 | 17.78° C | 49% | - | 0 mm | - | - | - |
| 1778181878 | 17.22° C | 48% | - | 0 mm | - | - | - |
| 1778170727 | 15° C | 63% | 982.3 hPa | 0 mm | - | - | - |
| 1778169648 | 15° C | 62% | 982.3 hPa | 0 mm | - | - | - |
| 1778166741 | 13.89° C | 65% | 983 hPa | 0 mm | - | - | - |
| 1778165672 | 12.78° C | 74% | 982.7 hPa | 0 mm | - | - | - |
| 1778160288 | 11.11° C | 92% | 983.7 hPa | 0 mm | - | - | - |
| 1778156315 | 10° C | 99% | 983.4 hPa | 0 mm | - | - | - |
| 1778149104 | 9.44° C | 99% | 982.3 hPa | 0 mm | - | - | - |
| 1778126788 | 12.22° C | 99% | - | 0 mm | - | - | - |
| 1778122093 | 12.22° C | 99% | - | 0 mm | - | - | - |
| 1778011780 | 25° C | 43% | - | 0 mm | - | - | - |
| 1778008172 | 25° C | 44% | - | 0 mm | - | - | - |
| 1778007816 | 25° C | 43% | - | 0 mm | - | - | - |
| 1778003485 | 25° C | 42% | - | 0 mm | - | - | - |
| 1778003125 | 25° C | 43% | - | 0 mm | - | - | - |
| 1778000979 | 25° C | 45% | - | 0 mm | - | - | - |
| 1778000609 | 24.44° C | 47% | - | 0 mm | - | - | - |
* Rain since midnight (hover to see other rain measurements)
** Current wind speed in m/s (hover to see current wind gust speed)